Time;durP1;ratioP1;P1;durP2;ratioP2;P2;SDS_P1;SDS_P2;PMS_P1;PMS_P2;Temp;Humidity;BMP_temperature;BMP_pressure;BME280_temperature;BME280_humidity;BME280_pressure;Samples;Min_cycle;Max_cycle;Signal;HPM_P1;HPM_P2
2022/07/24 00:01:53;;;;;;;5.70;4.68;;;14.50;99.90;;;;;;5058646;28;20480;-61
2022/07/24 00:04:19;;;;;;;6.75;4.85;;;14.50;99.90;;;;;;5048076;28;20435;-62
2022/07/24 00:06:45;;;;;;;7.03;4.93;;;14.50;99.90;;;;;;5049234;28;20045;-62
2022/07/24 00:09:10;;;;;;;6.25;4.40;;;14.50;99.90;;;;;;5056231;28;20484;-63
2022/07/24 00:11:36;;;;;;;7.45;4.95;;;14.50;99.90;;;;;;5052780;28;20029;-62
2022/07/24 00:14:02;;;;;;;6.78;4.68;;;14.40;99.90;;;;;;5066219;28;20033;-62
2022/07/24 00:16:27;;;;;;;5.13;4.40;;;14.50;99.90;;;;;;5056865;28;20511;-62
2022/07/24 00:18:53;;;;;;;7.68;5.20;;;14.50;99.90;;;;;;5057452;28;20044;-63
2022/07/24 00:21:18;;;;;;;6.55;4.90;;;14.50;99.90;;;;;;5053713;28;20037;-63
2022/07/24 00:23:44;;;;;;;7.20;5.15;;;14.40;99.90;;;;;;5055552;28;20041;-63
2022/07/24 00:26:11;;;;;;;7.40;5.00;;;14.50;99.90;;;;;;5060644;28;20033;-63
2022/07/24 00:28:36;;;;;;;6.93;5.25;;;14.40;99.90;;;;;;5048649;28;20040;-63
2022/07/24 00:31:02;;;;;;;5.55;4.85;;;14.50;99.90;;;;;;5052429;28;20049;-63
2022/07/24 00:33:28;;;;;;;7.50;4.88;;;14.50;99.90;;;;;;5047613;28;20025;-63
2022/07/24 00:35:53;;;;;;;6.35;5.63;;;14.60;99.90;;;;;;5054963;28;20028;-63
2022/07/24 00:38:19;;;;;;;6.78;5.25;;;14.50;99.90;;;;;;5057868;28;20040;-63
2022/07/24 00:40:45;;;;;;;6.60;5.38;;;14.50;99.90;;;;;;5057574;28;20048;-62
2022/07/24 00:43:10;;;;;;;10.52;5.78;;;14.50;99.90;;;;;;5055385;28;20134;-62
2022/07/24 00:45:36;;;;;;;6.25;5.18;;;14.50;99.90;;;;;;5051056;28;20029;-62
2022/07/24 00:48:02;;;;;;;7.80;5.70;;;14.50;99.90;;;;;;5048630;28;20586;-62
2022/07/24 00:50:28;;;;;;;8.38;5.68;;;14.50;99.90;;;;;;5048483;28;20064;-62
2022/07/24 00:52:55;;;;;;;5.97;5.38;;;14.50;99.90;;;;;;5049536;28;20072;-62
2022/07/24 00:55:21;;;;;;;8.15;5.45;;;14.50;99.90;;;;;;5048609;28;20064;-62
2022/07/24 00:57:48;;;;;;;7.93;5.50;;;14.50;99.90;;;;;;5048791;28;20049;-62
2022/07/24 01:00:16;;;;;;;7.28;5.80;;;14.40;99.90;;;;;;5051084;28;20044;-62
2022/07/24 01:02:42;;;;;;;9.35;5.38;;;14.40;99.90;;;;;;5045823;28;20055;-62
2022/07/24 01:05:11;;;;;;;6.32;5.32;;;14.50;99.90;;;;;;5050721;28;20040;-62
2022/07/24 01:07:37;;;;;;;10.02;5.97;;;14.40;99.90;;;;;;5058542;28;20135;-62
2022/07/24 01:10:04;;;;;;;9.50;5.88;;;14.50;99.90;;;;;;5060516;28;20123;-62
2022/07/24 01:12:32;;;;;;;9.25;6.07;;;14.40;99.90;;;;;;5054980;28;20041;-63
2022/07/24 01:14:57;;;;;;;7.75;5.57;;;14.50;99.90;;;;;;5064926;28;20037;-62
2022/07/24 01:17:24;;;;;;;8.63;6.07;;;14.50;99.90;;;;;;5049246;28;20036;-63
2022/07/24 01:19:50;;;;;;;7.53;6.25;;;14.40;99.90;;;;;;5051108;28;20259;-63
2022/07/24 01:22:15;;;;;;;10.65;6.53;;;14.40;99.90;;;;;;5051535;28;20076;-62
2022/07/24 01:24:41;;;;;;;7.78;6.10;;;14.40;99.90;;;;;;5049565;28;20048;-62
2022/07/24 01:27:07;;;;;;;8.82;5.95;;;14.40;99.90;;;;;;5054676;28;20626;-62
2022/07/24 01:29:33;;;;;;;8.85;6.65;;;14.40;99.90;;;;;;5048781;28;20091;-63
2022/07/24 01:31:59;;;;;;;11.05;6.80;;;14.40;99.90;;;;;;5057778;28;20041;-62
2022/07/24 01:34:25;;;;;;;12.18;6.72;;;14.40;99.90;;;;;;5044949;28;20041;-62
2022/07/24 01:36:50;;;;;;;9.15;6.20;;;14.40;99.90;;;;;;5059641;28;20032;-62
2022/07/24 01:39:16;;;;;;;7.78;6.25;;;14.30;99.90;;;;;;5048496;28;20635;-62
2022/07/24 01:41:41;;;;;;;8.95;7.25;;;14.30;99.90;;;;;;5052222;28;20763;-62
2022/07/24 01:44:07;;;;;;;8.82;6.50;;;14.30;99.90;;;;;;5058764;28;20040;-62
2022/07/24 01:46:33;;;;;;;8.60;6.40;;;14.30;99.90;;;;;;5049991;28;20124;-62
2022/07/24 01:48:58;;;;;;;7.70;6.10;;;14.30;99.90;;;;;;5055253;28;20109;-62
2022/07/24 01:51:24;;;;;;;11.40;6.63;;;14.30;99.90;;;;;;5048029;28;20119;-62
2022/07/24 01:53:49;;;;;;;8.48;6.38;;;14.20;99.90;;;;;;5053008;28;20069;-62
2022/07/24 01:56:15;;;;;;;8.27;6.90;;;14.20;99.90;;;;;;5049760;28;20052;-62
2022/07/24 01:58:40;;;;;;;8.75;6.50;;;14.20;99.90;;;;;;5046749;28;20439;-62
2022/07/24 02:01:07;;;;;;;13.05;6.47;;;14.20;99.90;;;;;;5053515;28;20153;-62
2022/07/24 02:03:32;;;;;;;9.82;7.22;;;14.20;99.90;;;;;;5047965;28;20044;-62
2022/07/24 02:05:58;;;;;;;9.07;6.93;;;14.10;99.90;;;;;;5059984;28;20036;-63
2022/07/24 02:08:23;;;;;;;9.07;6.70;;;14.10;99.90;;;;;;5056809;28;20048;-62
2022/07/24 02:10:49;;;;;;;8.77;6.53;;;14.10;99.90;;;;;;5051433;28;20041;-62
2022/07/24 02:13:14;;;;;;;7.78;6.60;;;14.10;99.90;;;;;;5059772;28;20037;-63
2022/07/24 02:15:40;;;;;;;7.75;6.60;;;14.10;99.90;;;;;;5048007;28;20041;-62
2022/07/24 02:18:05;;;;;;;9.32;6.78;;;14.10;99.90;;;;;;5057943;28;20791;-62
2022/07/24 02:20:31;;;;;;;9.27;6.75;;;14.10;99.90;;;;;;5056280;28;20040;-62
2022/07/24 02:22:57;;;;;;;9.77;6.63;;;14.10;99.90;;;;;;5052129;28;20040;-62
2022/07/24 02:25:22;;;;;;;11.82;7.28;;;14.00;99.90;;;;;;5050622;28;20036;-62
2022/07/24 02:27:48;;;;;;;9.68;7.05;;;14.00;99.90;;;;;;5047147;28;20361;-62
2022/07/24 02:30:16;;;;;;;7.35;6.38;;;14.00;99.90;;;;;;5050036;28;20037;-62
2022/07/24 02:32:43;;;;;;;9.18;7.00;;;14.00;99.90;;;;;;5046907;28;20091;-62
2022/07/24 02:35:09;;;;;;;10.20;6.78;;;13.90;99.90;;;;;;5046496;28;20044;-62
2022/07/24 02:37:42;;;;;;;10.38;7.20;;;13.90;99.90;;;;;;5055875;28;20048;-62
2022/07/24 02:40:10;;;;;;;8.90;6.28;;;13.90;99.90;;;;;;5061117;28;20044;-63
2022/07/24 02:42:36;;;;;;;10.02;7.20;;;13.90;99.90;;;;;;5052435;28;20041;-62
2022/07/24 02:45:02;;;;;;;12.45;7.20;;;13.90;99.90;;;;;;5060554;28;20048;-62
2022/07/24 02:47:28;;;;;;;8.40;6.47;;;13.90;99.90;;;;;;5051594;28;20041;-62
2022/07/24 02:49:53;;;;;;;8.77;7.28;;;13.90;99.90;;;;;;5054709;28;20090;-61
2022/07/24 02:52:19;;;;;;;9.65;6.35;;;13.90;99.90;;;;;;5058751;28;20115;-62
2022/07/24 02:54:44;;;;;;;8.93;6.30;;;13.90;99.90;;;;;;5054493;28;20068;-62
2022/07/24 02:57:10;;;;;;;9.57;7.43;;;13.90;99.90;;;;;;5048023;28;20077;-62
2022/07/24 02:59:35;;;;;;;9.77;7.13;;;13.90;99.90;;;;;;5058774;28;20064;-62
2022/07/24 03:02:01;;;;;;;10.43;6.88;;;13.90;99.90;;;;;;5052997;28;20060;-61
2022/07/24 03:04:27;;;;;;;9.80;7.35;;;13.90;99.90;;;;;;5051113;28;20119;-61
2022/07/24 03:06:52;;;;;;;11.95;7.82;;;13.80;99.90;;;;;;5061347;28;20222;-62
2022/07/24 03:09:19;;;;;;;9.90;7.47;;;13.80;99.90;;;;;;5055903;28;20037;-62
2022/07/24 03:11:44;;;;;;;9.30;7.65;;;13.80;99.90;;;;;;5048313;28;20032;-62
2022/07/24 03:14:10;;;;;;;9.13;6.90;;;13.80;99.90;;;;;;5047841;28;20033;-62
2022/07/24 03:16:37;;;;;;;9.50;7.25;;;13.70;99.90;;;;;;5046128;28;20090;-62
2022/07/24 03:19:02;;;;;;;12.18;7.55;;;13.80;99.90;;;;;;5048218;28;20041;-62
2022/07/24 03:21:28;;;;;;;9.23;7.20;;;13.70;99.90;;;;;;5065847;28;20087;-62
2022/07/24 03:23:53;;;;;;;8.77;6.72;;;13.70;99.90;;;;;;5053361;28;20045;-62
2022/07/24 03:26:19;;;;;;;9.63;7.03;;;13.70;99.90;;;;;;5051863;28;20052;-62
2022/07/24 03:28:44;;;;;;;11.25;7.15;;;13.70;99.90;;;;;;5045926;28;20045;-62
2022/07/24 03:31:10;;;;;;;10.77;7.07;;;13.70;99.90;;;;;;5047118;28;20076;-62
2022/07/24 03:33:35;;;;;;;10.80;7.80;;;13.60;99.90;;;;;;5045002;28;20029;-62
2022/07/24 03:36:01;;;;;;;8.80;7.45;;;13.60;99.90;;;;;;5048215;28;20060;-62
2022/07/24 03:38:27;;;;;;;8.68;6.93;;;13.70;99.90;;;;;;5063782;28;20455;-62
2022/07/24 03:40:52;;;;;;;9.48;7.30;;;13.70;99.90;;;;;;5053611;28;20052;-62
2022/07/24 03:43:18;;;;;;;9.48;7.10;;;13.70;99.90;;;;;;5048952;28;20445;-63
2022/07/24 03:45:44;;;;;;;10.55;7.38;;;13.70;99.90;;;;;;5053431;28;20032;-62
2022/07/24 03:48:10;;;;;;;10.93;7.22;;;13.70;99.90;;;;;;5055386;28;20094;-62
2022/07/24 03:50:35;;;;;;;10.50;7.47;;;13.70;99.90;;;;;;5056684;28;20445;-62
2022/07/24 03:53:01;;;;;;;9.48;7.25;;;13.70;99.90;;;;;;5053058;28;20048;-62
2022/07/24 03:55:27;;;;;;;9.20;7.20;;;13.80;99.90;;;;;;5047385;28;20568;-62
2022/07/24 03:57:53;;;;;;;9.90;7.40;;;13.80;99.90;;;;;;5047904;28;20063;-62
2022/07/24 04:00:18;;;;;;;16.10;7.15;;;13.80;99.90;;;;;;5048669;28;20037;-63
2022/07/24 04:02:45;;;;;;;9.52;7.15;;;13.90;99.90;;;;;;5055009;28;20519;-62
2022/07/24 04:05:13;;;;;;;8.57;6.97;;;13.90;99.90;;;;;;5056705;28;20123;-62
2022/07/24 04:07:39;;;;;;;10.00;7.05;;;13.90;99.90;;;;;;5058195;28;20043;-62
2022/07/24 04:10:06;;;;;;;9.93;7.20;;;14.00;99.90;;;;;;5069263;28;20040;-62
2022/07/24 04:12:32;;;;;;;11.13;7.07;;;14.00;99.90;;;;;;5057310;28;20121;-61
2022/07/24 04:14:57;;;;;;;9.90;6.97;;;14.00;99.90;;;;;;5050381;28;20551;-63
2022/07/24 04:17:23;;;;;;;10.40;7.13;;;14.10;99.90;;;;;;5051914;28;20032;-62
2022/07/24 04:19:48;;;;;;;9.98;6.95;;;14.10;99.90;;;;;;5053034;28;20472;-62
2022/07/24 04:22:14;;;;;;;12.30;7.60;;;14.10;99.90;;;;;;5054895;28;20080;-62
2022/07/24 04:24:39;;;;;;;9.40;6.00;;;14.20;99.90;;;;;;5052644;28;20081;-61
2022/07/24 04:27:05;;;;;;;8.88;6.97;;;14.20;99.90;;;;;;5052721;28;20471;-63
2022/07/24 04:29:31;;;;;;;12.55;7.72;;;14.20;99.90;;;;;;5051487;28;20032;-62
2022/07/24 04:31:57;;;;;;;10.20;6.80;;;14.20;99.90;;;;;;5064089;28;20469;-63
2022/07/24 04:34:22;;;;;;;7.90;6.43;;;14.10;99.90;;;;;;5055401;28;20489;-61
2022/07/24 04:36:48;;;;;;;8.57;7.28;;;14.20;99.90;;;;;;5068476;28;20037;-62
2022/07/24 04:39:14;;;;;;;9.50;6.97;;;14.20;99.90;;;;;;5056541;28;20044;-62
2022/07/24 04:41:40;;;;;;;9.45;7.07;;;14.20;99.90;;;;;;5049104;28;20036;-62
2022/07/24 04:44:05;;;;;;;12.65;7.32;;;14.20;99.90;;;;;;5046733;28;20041;-63
2022/07/24 04:46:31;;;;;;;10.15;6.68;;;14.20;99.90;;;;;;5051756;28;20041;-63
2022/07/24 04:48:57;;;;;;;9.70;6.30;;;14.30;99.90;;;;;;5043583;28;20052;-63
2022/07/24 04:51:22;;;;;;;8.77;7.10;;;14.20;99.90;;;;;;5048900;28;20077;-63
2022/07/24 04:53:48;;;;;;;8.27;6.50;;;14.30;99.90;;;;;;5059241;28;20055;-63
2022/07/24 04:56:14;;;;;;;11.15;7.25;;;14.30;99.90;;;;;;5048687;28;20025;-63
2022/07/24 04:58:39;;;;;;;10.15;6.53;;;14.30;99.90;;;;;;5063057;28;20049;-63
2022/07/24 05:01:06;;;;;;;10.77;6.65;;;14.40;99.90;;;;;;5052522;28;20073;-63
2022/07/24 05:03:32;;;;;;;9.20;6.25;;;14.50;99.90;;;;;;5053506;28;20036;-63
2022/07/24 05:05:57;;;;;;;11.25;7.25;;;14.60;99.90;;;;;;5042524;28;20051;-63
2022/07/24 05:08:23;;;;;;;9.32;6.72;;;14.70;99.90;;;;;;5050305;28;20077;-63
2022/07/24 05:10:49;;;;;;;10.93;6.72;;;14.80;99.90;;;;;;5051678;28;20102;-63
2022/07/24 05:13:14;;;;;;;10.52;6.72;;;14.90;99.90;;;;;;5050991;28;20065;-63
2022/07/24 05:15:40;;;;;;;9.52;6.85;;;15.00;99.90;;;;;;5066862;28;20029;-63
2022/07/24 05:18:05;;;;;;;9.18;6.45;;;15.10;99.90;;;;;;5060797;28;20097;-62
2022/07/24 05:20:31;;;;;;;8.63;6.20;;;15.20;99.90;;;;;;5064040;28;20102;-63
2022/07/24 05:22:57;;;;;;;10.18;6.80;;;15.30;99.90;;;;;;5058736;28;20045;-63
2022/07/24 05:25:22;;;;;;;9.05;6.13;;;15.40;99.90;;;;;;5051061;28;20041;-63
2022/07/24 05:27:48;;;;;;;9.95;6.47;;;15.40;99.90;;;;;;5048228;28;20045;-62
2022/07/24 05:30:13;;;;;;;8.75;6.55;;;15.50;99.90;;;;;;5052600;28;20928;-63
2022/07/24 05:32:39;;;;;;;8.80;6.55;;;15.60;99.90;;;;;;5052609;28;20449;-63
2022/07/24 05:35:05;;;;;;;8.77;5.93;;;15.70;99.90;;;;;;5055678;28;20035;-62
2022/07/24 05:37:31;;;;;;;8.20;6.10;;;15.90;99.90;;;;;;5050117;28;20033;-62
2022/07/24 05:39:56;;;;;;;8.40;6.55;;;16.10;99.90;;;;;;5051709;28;20047;-62
2022/07/24 05:42:22;;;;;;;9.25;6.20;;;16.30;99.90;;;;;;5061474;28;20045;-63
2022/07/24 05:44:48;;;;;;;8.00;5.72;;;16.60;99.90;;;;;;5052920;28;20069;-63
2022/07/24 05:47:13;;;;;;;9.05;6.45;;;16.90;99.90;;;;;;5053171;28;20484;-62
2022/07/24 05:49:39;;;;;;;10.50;6.20;;;17.10;99.90;;;;;;5056605;28;20381;-62
2022/07/24 05:52:04;;;;;;;8.20;5.65;;;17.30;99.90;;;;;;5052332;28;20048;-63
2022/07/24 05:54:30;;;;;;;7.68;5.70;;;17.40;99.90;;;;;;5050015;28;20036;-63
2022/07/24 05:56:56;;;;;;;7.80;5.57;;;17.40;99.90;;;;;;5054925;28;20451;-64
2022/07/24 05:59:21;;;;;;;7.13;6.43;;;17.50;99.90;;;;;;5053517;28;20047;-64
2022/07/24 06:01:47;;;;;;;7.90;5.90;;;17.60;99.90;;;;;;5050321;28;20044;-64
2022/07/24 06:04:12;;;;;;;8.95;6.35;;;17.90;99.90;;;;;;5048444;28;20087;-63
2022/07/24 06:06:38;;;;;;;9.52;6.35;;;18.10;99.90;;;;;;5063651;28;20036;-63
2022/07/24 06:09:04;;;;;;;7.95;6.07;;;18.40;99.90;;;;;;5051013;28;20033;-63
2022/07/24 06:11:30;;;;;;;10.85;6.45;;;18.70;99.90;;;;;;5059641;28;20040;-64
2022/07/24 06:13:55;;;;;;;9.57;6.63;;;19.00;98.80;;;;;;5047554;28;20502;-63
2022/07/24 06:16:21;;;;;;;7.35;6.03;;;19.40;97.70;;;;;;5055806;28;20037;-64
2022/07/24 06:18:46;;;;;;;10.80;7.22;;;19.70;97.30;;;;;;5051842;28;20031;-62
2022/07/24 06:21:12;;;;;;;8.45;7.25;;;19.40;92.70;;;;;;5048721;28;20043;-64
2022/07/24 06:23:37;;;;;;;11.13;7.03;;;19.50;94.50;;;;;;5047765;28;20075;-64
2022/07/24 06:26:03;;;;;;;10.35;6.93;;;19.60;94.80;;;;;;5054874;28;20067;-64
2022/07/24 06:28:29;;;;;;;7.85;6.47;;;19.50;93.00;;;;;;5054711;28;20037;-64
2022/07/24 06:30:54;;;;;;;12.57;7.32;;;19.40;94.30;;;;;;5052550;28;20123;-63
2022/07/24 06:33:20;;;;;;;8.85;7.25;;;19.40;94.00;;;;;;5053683;28;20040;-63
2022/07/24 06:35:45;;;;;;;14.05;8.15;;;19.50;94.10;;;;;;5055436;28;20037;-62
2022/07/24 06:38:11;;;;;;;9.23;7.10;;;19.50;93.00;;;;;;5055411;28;20032;-63
2022/07/24 06:40:38;;;;;;;8.65;7.47;;;19.70;93.90;;;;;;5054049;28;20025;-64
2022/07/24 06:43:04;;;;;;;9.05;6.90;;;20.00;93.90;;;;;;5051280;28;20115;-63
2022/07/24 06:45:32;;;;;;;11.45;8.73;;;20.30;93.70;;;;;;5051020;28;20356;-64
2022/07/24 06:48:02;;;;;;;10.80;8.13;;;20.60;93.30;;;;;;5060149;28;20041;-63
2022/07/24 06:50:28;;;;;;;12.75;8.43;;;20.70;93.10;;;;;;5061472;28;20055;-64
2022/07/24 06:52:53;;;;;;;11.20;8.20;;;20.80;91.60;;;;;;5061899;28;20036;-62
2022/07/24 06:55:19;;;;;;;11.25;8.60;;;21.10;91.40;;;;;;5060595;28;20139;-64
2022/07/24 06:57:45;;;;;;;10.60;8.90;;;21.00;91.40;;;;;;5061479;28;20056;-64
2022/07/24 07:00:11;;;;;;;10.48;9.05;;;21.00;91.10;;;;;;5056206;28;20090;-64
2022/07/24 07:02:37;;;;;;;11.85;8.57;;;20.90;90.20;;;;;;5065104;28;20515;-63
2022/07/24 07:05:07;;;;;;;11.50;9.60;;;21.00;90.70;;;;;;5061976;28;20040;-63
2022/07/24 07:07:34;;;;;;;12.77;9.88;;;20.80;90.40;;;;;;5051415;28;20041;-64
2022/07/24 07:10:00;;;;;;;12.50;9.02;;;20.80;90.90;;;;;;5048136;28;20491;-64
2022/07/24 07:12:25;;;;;;;13.43;8.73;;;21.00;90.90;;;;;;5053834;28;20040;-64
2022/07/24 07:14:51;;;;;;;11.80;9.05;;;21.20;90.50;;;;;;5047635;28;20515;-64
2022/07/24 07:17:17;;;;;;;12.40;9.45;;;21.50;90.70;;;;;;5053931;28;20059;-64
2022/07/24 07:19:43;;;;;;;16.25;11.57;;;21.80;90.40;;;;;;5055356;28;20373;-62
2022/07/24 07:22:10;;;;;;;14.38;11.05;;;21.80;84.90;;;;;;5053316;28;20682;-63
2022/07/24 07:24:35;;;;;;;16.67;10.77;;;22.00;84.50;;;;;;5054056;28;20048;-65
2022/07/24 07:27:01;;;;;;;17.60;10.65;;;22.30;88.00;;;;;;5059857;28;20082;-65
2022/07/24 07:29:26;;;;;;;11.88;8.95;;;22.40;87.20;;;;;;5056458;28;20127;-64
2022/07/24 07:31:52;;;;;;;13.50;10.98;;;22.70;87.20;;;;;;5062965;28;20036;-64
2022/07/24 07:34:18;;;;;;;13.35;10.82;;;22.70;81.70;;;;;;5061230;28;20450;-64
2022/07/24 07:36:43;;;;;;;13.90;10.20;;;23.00;84.50;;;;;;5054423;28;20044;-63
2022/07/24 07:39:09;;;;;;;13.93;10.80;;;23.00;84.00;;;;;;5055173;28;20059;-64
2022/07/24 07:41:35;;;;;;;14.10;10.63;;;23.20;81.70;;;;;;5052725;28;20425;-63
2022/07/24 07:44:01;;;;;;;12.82;10.02;;;23.30;81.60;;;;;;5054020;28;20044;-64
2022/07/24 07:46:26;;;;;;;14.88;10.13;;;23.50;80.00;;;;;;5056015;28;20071;-63
2022/07/24 07:48:53;;;;;;;12.23;10.88;;;23.70;80.30;;;;;;5050410;28;20070;-64
2022/07/24 07:51:18;;;;;;;15.63;11.95;;;24.00;79.00;;;;;;5059014;28;20146;-65
2022/07/24 07:53:44;;;;;;;13.35;10.50;;;24.00;76.20;;;;;;5062266;28;20202;-63
2022/07/24 07:56:10;;;;;;;12.27;9.02;;;24.50;77.40;;;;;;5063397;28;20517;-64
2022/07/24 07:58:35;;;;;;;13.68;10.68;;;24.90;76.50;;;;;;5059608;28;20068;-65
2022/07/24 08:01:01;;;;;;;12.55;9.75;;;24.80;74.20;;;;;;5060631;28;20178;-65
2022/07/24 08:03:26;;;;;;;13.50;9.50;;;25.30;73.60;;;;;;5066424;28;20044;-65
2022/07/24 08:05:52;;;;;;;12.90;11.15;;;25.20;72.90;;;;;;5054900;28;20045;-64
2022/07/24 08:08:17;;;;;;;15.43;10.05;;;25.80;69.50;;;;;;5053336;28;20047;-66
2022/07/24 08:10:43;;;;;;;14.45;10.27;;;25.50;68.30;;;;;;5064250;28;20411;-64
2022/07/24 08:13:09;;;;;;;14.02;9.73;;;25.40;69.90;;;;;;5063480;28;20037;-65
2022/07/24 08:15:34;;;;;;;12.23;8.70;;;25.50;69.00;;;;;;5054244;28;20521;-63
2022/07/24 08:18:00;;;;;;;15.95;9.82;;;25.70;69.00;;;;;;5070422;28;21679;-65
2022/07/24 08:20:26;;;;;;;12.30;9.30;;;25.90;66.00;;;;;;5073120;28;20041;-65
2022/07/24 08:22:52;;;;;;;11.63;9.25;;;26.00;65.90;;;;;;5063579;28;20048;-65
2022/07/24 08:25:18;;;;;;;9.82;7.47;;;26.10;65.40;;;;;;5054412;28;20041;-65
2022/07/24 08:27:44;;;;;;;9.15;7.43;;;26.40;63.80;;;;;;5052550;28;20423;-66
2022/07/24 08:30:10;;;;;;;10.27;9.13;;;26.70;62.60;;;;;;5073772;28;20075;-65
2022/07/24 08:32:37;;;;;;;9.10;7.65;;;26.60;59.30;;;;;;5067120;28;20098;-64
2022/07/24 08:35:04;;;;;;;10.73;7.75;;;27.00;60.80;;;;;;5050406;28;20358;-65
2022/07/24 08:37:30;;;;;;;9.80;8.05;;;27.30;59.50;;;;;;5055050;28;20051;-65
2022/07/24 08:39:55;;;;;;;9.05;6.05;;;27.50;59.50;;;;;;5073252;28;20131;-65
2022/07/24 08:42:21;;;;;;;8.98;6.32;;;27.90;58.80;;;;;;5068026;28;20036;-65
2022/07/24 08:44:47;;;;;;;9.07;6.13;;;27.90;57.20;;;;;;5065605;28;20051;-66
2022/07/24 08:47:15;;;;;;;8.68;5.90;;;28.10;56.00;;;;;;5052994;28;20033;-62
2022/07/24 08:49:44;;;;;;;7.78;5.22;;;28.30;52.90;;;;;;5058717;28;20036;-65
2022/07/24 08:52:09;;;;;;;6.47;4.28;;;28.20;54.40;;;;;;5048784;28;20028;-65
2022/07/24 08:54:36;;;;;;;5.28;4.53;;;28.10;53.30;;;;;;5054528;28;20544;-66
2022/07/24 08:57:04;;;;;;;5.03;3.97;;;28.20;53.30;;;;;;5057434;28;20044;-65
2022/07/24 08:59:30;;;;;;;4.32;3.53;;;28.50;51.90;;;;;;5055463;28;20119;-64
2022/07/24 09:01:56;;;;;;;3.42;3.10;;;28.80;52.00;;;;;;5052923;28;20125;-64
2022/07/24 09:04:38;;;;;;;7.35;3.50;;;28.90;50.80;;;;;;5054226;28;20043;-64
2022/07/24 09:07:15;;;;;;;3.72;3.42;;;28.90;48.70;;;;;;5060332;28;20127;-65
2022/07/24 09:09:42;;;;;;;5.03;3.20;;;28.80;49.40;;;;;;5060664;28;20059;-65
2022/07/24 09:12:14;;;;;;;3.78;2.90;;;28.90;50.30;;;;;;5057920;28;20102;-64
2022/07/24 09:14:42;;;;;;;3.40;3.00;;;28.50;49.70;;;;;;5066132;28;20094;-65
2022/07/24 09:17:10;;;;;;;6.15;3.08;;;28.10;50.80;;;;;;5056155;28;20094;-65
2022/07/24 09:19:46;;;;;;;10.43;3.63;;;27.80;50.60;;;;;;5050760;28;20495;-64
2022/07/24 09:22:30;;;;;;;11.02;3.50;;;27.60;50.50;;;;;;5063647;28;20037;-65
2022/07/24 09:25:10;;;;;;;5.78;2.80;;;28.30;51.60;;;;;;5063500;28;20052;-65
2022/07/24 09:27:39;;;;;;;4.40;2.85;;;29.00;49.20;;;;;;5052828;28;22030;-65
2022/07/24 09:30:07;;;;;;;3.70;2.88;;;29.10;49.30;;;;;;5057200;28;20048;-65
2022/07/24 09:32:33;;;;;;;3.15;2.47;;;28.70;49.20;;;;;;5048798;28;20063;-65
2022/07/24 09:34:58;;;;;;;6.80;2.90;;;28.40;49.50;;;;;;5050570;28;20074;-63
2022/07/24 09:37:26;;;;;;;4.18;3.00;;;28.00;49.50;;;;;;5051580;28;20037;-65
2022/07/24 09:39:58;;;;;;;3.38;2.58;;;27.70;50.50;;;;;;5062250;28;20137;-64
2022/07/24 09:42:30;;;;;;;3.25;2.85;;;28.20;50.50;;;;;;5057454;28;20094;-64
2022/07/24 09:44:59;;;;;;;3.00;2.40;;;29.00;48.30;;;;;;5059073;28;20122;-65
2022/07/24 09:47:25;;;;;;;3.78;2.60;;;29.90;48.30;;;;;;5068310;28;20622;-65
2022/07/24 09:50:09;;;;;;;3.65;2.70;;;30.20;47.30;;;;;;5060343;28;20133;-65
2022/07/24 09:52:36;;;;;;;2.75;2.42;;;30.10;46.00;;;;;;5057570;28;20428;-64
2022/07/24 09:55:02;;;;;;;4.03;2.80;;;30.00;46.50;;;;;;5059966;28;20476;-66
2022/07/24 09:57:29;;;;;;;2.75;2.55;;;30.00;47.50;;;;;;5049336;28;20056;-66
2022/07/24 10:00:01;;;;;;;2.60;2.35;;;30.20;47.60;;;;;;5051643;28;20052;-64
2022/07/24 10:02:29;;;;;;;2.88;2.30;;;30.60;46.90;;;;;;5063802;28;20055;-65
2022/07/24 10:04:56;;;;;;;2.72;2.40;;;30.90;45.80;;;;;;5060828;28;20029;-65
2022/07/24 10:07:24;;;;;;;2.60;2.40;;;31.20;44.60;;;;;;5055521;28;20396;-65
2022/07/24 10:09:52;;;;;;;2.72;2.20;;;32.10;42.70;;;;;;5065926;28;20421;-66
2022/07/24 10:12:21;;;;;;;2.58;2.38;;;33.10;40.90;;;;;;5056361;28;20044;-66
2022/07/24 10:14:49;;;;;;;2.67;2.40;;;33.60;40.70;;;;;;5066398;28;20044;-65
2022/07/24 10:17:16;;;;;;;3.83;2.63;;;33.90;39.60;;;;;;5052530;28;20063;-65
2022/07/24 10:19:49;;;;;;;2.78;2.20;;;33.40;40.00;;;;;;5045798;28;20037;-64
2022/07/24 10:22:20;;;;;;;5.13;2.30;;;33.50;38.80;;;;;;5054022;28;20411;-65
2022/07/24 10:24:56;;;;;;;2.50;2.30;;;33.60;40.00;;;;;;5065506;28;20040;-66
2022/07/24 10:27:37;;;;;;;3.13;2.63;;;33.80;38.40;;;;;;5050329;28;20041;-66
2022/07/24 10:30:08;;;;;;;4.00;2.22;;;34.00;36.70;;;;;;5052862;28;20037;-65
2022/07/24 10:32:35;;;;;;;2.50;2.30;;;34.30;37.70;;;;;;5059766;28;20051;-65
2022/07/24 10:35:15;;;;;;;3.40;2.70;;;34.60;37.40;;;;;;5062958;28;20094;-66
2022/07/24 10:38:21;;;;;;;2.53;2.30;;;34.60;36.30;;;;;;5056862;28;20036;-65
2022/07/24 10:40:53;;;;;;;3.13;2.25;;;33.40;36.40;;;;;;5048249;28;20495;-65
2022/07/24 10:43:20;;;;;;;2.65;2.30;;;33.90;37.70;;;;;;5055067;28;20654;-65
2022/07/24 10:45:52;;;;;;;2.42;2.22;;;34.10;37.60;;;;;;5048265;28;20500;-66
2022/07/24 10:48:20;;;;;;;2.67;2.17;;;33.90;36.60;;;;;;5052934;28;20048;-65
2022/07/24 10:51:05;;;;;;;2.40;2.20;;;32.70;38.70;;;;;;5051318;28;20127;-65
2022/07/24 10:53:37;;;;;;;3.08;2.45;;;32.10;39.60;;;;;;5059481;28;20071;-65
2022/07/24 10:56:19;;;;;;;4.30;2.30;;;30.60;41.30;;;;;;5059536;28;20039;-64
2022/07/24 10:59:07;;;;;;;3.53;2.50;;;31.10;42.60;;;;;;5052779;28;20041;-65
2022/07/24 11:01:47;;;;;;;2.55;2.15;;;31.10;42.60;;;;;;5063213;28;20068;-65
2022/07/24 11:04:22;;;;;;;3.03;2.17;;;31.00;41.30;;;;;;5056284;28;20052;-66
2022/07/24 11:07:14;;;;;;;2.97;2.05;;;30.80;41.40;;;;;;5074523;28;20044;-65
2022/07/24 11:09:59;;;;;;;2.63;2.17;;;30.50;41.60;;;;;;5061208;28;20052;-66
2022/07/24 11:12:32;;;;;;;2.50;2.30;;;30.30;41.90;;;;;;5054636;28;20033;-63
2022/07/24 11:17:47;;;;;;;3.10;2.60;;;29.60;44.10;;;;;;5052380;28;20049;-66
2022/07/24 11:20:18;;;;;;;2.90;2.38;;;29.10;44.00;;;;;;5068630;28;20468;-66
2022/07/24 11:22:55;;;;;;;3.28;2.65;;;29.10;44.20;;;;;;5054789;28;20122;-66
2022/07/24 11:25:26;;;;;;;3.45;2.53;;;28.80;44.40;;;;;;5057751;28;20465;-66
2022/07/24 11:27:56;;;;;;;3.78;2.15;;;28.60;44.50;;;;;;5056169;28;20045;-66
2022/07/24 11:30:23;;;;;;;4.25;2.50;;;28.50;45.00;;;;;;5068069;28;20106;-66
2022/07/24 11:32:49;;;;;;;3.78;2.22;;;28.60;45.30;;;;;;5071642;28;20039;-64
2022/07/24 11:35:15;;;;;;;3.28;2.10;;;28.50;45.80;;;;;;5068418;28;20108;-65
2022/07/24 11:37:42;;;;;;;3.55;2.30;;;28.70;46.30;;;;;;5056085;28;20043;-65
2022/07/24 11:40:12;;;;;;;3.65;2.55;;;28.80;46.20;;;;;;5073722;28;20046;-66
2022/07/24 11:42:38;;;;;;;2.72;2.38;;;28.60;46.10;;;;;;5070555;28;20048;-64
2022/07/24 11:45:04;;;;;;;2.42;2.22;;;28.70;45.50;;;;;;5062937;28;20393;-65
2022/07/24 11:47:30;;;;;;;2.53;2.10;;;28.70;45.20;;;;;;5064916;28;20102;-65
2022/07/24 11:49:59;;;;;;;3.22;2.50;;;28.80;45.50;;;;;;5050799;28;20052;-66
2022/07/24 11:52:32;;;;;;;3.90;2.72;;;28.70;45.30;;;;;;5054022;28;20086;-66
2022/07/24 11:55:01;;;;;;;3.40;2.28;;;29.00;45.90;;;;;;5063674;28;20037;-64
2022/07/24 11:57:32;;;;;;;2.60;2.40;;;29.10;45.90;;;;;;5053449;28;20087;-63
2022/07/24 11:59:58;;;;;;;4.50;2.50;;;29.20;44.70;;;;;;5054308;28;20041;-63
2022/07/24 12:02:26;;;;;;;5.13;2.33;;;29.00;44.40;;;;;;5053239;28;20111;-64
2022/07/24 12:04:53;;;;;;;3.20;2.55;;;29.00;45.30;;;;;;5053330;28;20385;-65
2022/07/24 12:07:21;;;;;;;3.58;2.20;;;29.00;44.80;;;;;;5056003;28;20041;-66
2022/07/24 12:09:51;;;;;;;3.72;2.50;;;29.10;44.40;;;;;;5053652;28;20428;-66
2022/07/24 12:12:19;;;;;;;2.25;2.05;;;29.20;44.30;;;;;;5053358;28;20049;-65
2022/07/24 12:14:45;;;;;;;3.38;2.10;;;29.30;44.60;;;;;;5065233;28;20048;-65
2022/07/24 12:17:10;;;;;;;2.13;1.92;;;29.50;44.10;;;;;;5054092;28;20464;-65
2022/07/24 12:19:36;;;;;;;4.30;2.28;;;29.50;43.30;;;;;;5048952;28;20041;-65
2022/07/24 12:22:02;;;;;;;3.17;2.00;;;29.70;42.50;;;;;;5054122;28;20396;-65
2022/07/24 12:24:31;;;;;;;3.03;2.20;;;29.80;42.30;;;;;;5074305;28;20109;-66
2022/07/24 12:26:59;;;;;;;2.95;1.98;;;29.90;41.60;;;;;;5058613;28;20067;-66
2022/07/24 12:29:27;;;;;;;4.20;2.05;;;29.80;41.20;;;;;;5059639;28;20065;-66
2022/07/24 12:32:12;;;;;;;4.50;2.50;;;29.90;41.50;;;;;;5055348;28;20051;-65
2022/07/24 12:34:46;;;;;;;4.03;2.40;;;30.20;41.10;;;;;;5064641;28;20068;-66
2022/07/24 12:37:21;;;;;;;3.40;2.20;;;30.70;40.90;;;;;;5056244;28;20052;-67
2022/07/24 12:39:47;;;;;;;4.45;2.33;;;31.60;39.40;;;;;;5053036;28;20049;-66
2022/07/24 12:42:13;;;;;;;4.20;2.20;;;32.40;39.20;;;;;;5066555;28;20067;-67
2022/07/24 12:44:42;;;;;;;2.92;2.25;;;33.60;38.60;;;;;;5062856;28;21032;-67
2022/07/24 12:47:08;;;;;;;4.15;2.20;;;34.30;36.10;;;;;;5052058;28;20032;-66